Time;durP1;ratioP1;P1;durP2;ratioP2;P2;SDS_P1;SDS_P2;PMS_P1;PMS_P2;Temp;Humidity;BMP_temperature;BMP_pressure;BME280_temperature;BME280_humidity;BME280_pressure;Samples;Min_cycle;Max_cycle;Signal;HPM_P1;HPM_P2
2023/07/13 00:00:26;;;;;;;4.65;2.40;;;22.00;99.90;;;;;;4999874;28;20213;-74
2023/07/13 00:02:54;;;;;;;3.67;1.90;;;21.90;99.90;;;;;;5000377;28;20695;-73
2023/07/13 00:05:21;;;;;;;3.75;2.03;;;21.90;99.90;;;;;;4998718;28;20920;-74
2023/07/13 00:07:48;;;;;;;6.22;3.63;;;21.80;99.90;;;;;;5002038;28;20189;-73
2023/07/13 00:10:13;;;;;;;3.58;2.70;;;21.80;99.90;;;;;;4999182;28;20210;-74
2023/07/13 00:12:39;;;;;;;6.00;2.20;;;21.80;99.90;;;;;;5002461;28;20597;-73
2023/07/13 00:15:22;;;;;;;3.50;2.03;;;21.70;99.90;;;;;;4999114;28;20263;-73
2023/07/13 00:17:49;;;;;;;4.35;2.08;;;21.70;99.90;;;;;;5008908;28;20660;-73
2023/07/13 00:20:15;;;;;;;2.72;2.00;;;21.60;99.90;;;;;;5000661;28;20181;-74
2023/07/13 00:22:41;;;;;;;4.25;2.00;;;21.60;99.90;;;;;;5000270;28;20268;-73
2023/07/13 00:25:08;;;;;;;6.30;2.13;;;21.70;99.90;;;;;;4994049;28;20208;-73
2023/07/13 00:27:34;;;;;;;5.90;2.22;;;21.70;99.90;;;;;;4999361;28;20360;-73
2023/07/13 00:30:12;;;;;;;3.60;2.20;;;21.50;99.90;;;;;;5001264;28;20297;-73
2023/07/13 00:32:38;;;;;;;4.75;2.30;;;21.50;99.90;;;;;;5000443;28;20611;-73
2023/07/13 00:35:04;;;;;;;4.53;2.55;;;21.50;99.90;;;;;;5003159;28;20192;-73
2023/07/13 00:37:30;;;;;;;4.50;2.22;;;21.40;99.90;;;;;;5001976;28;20222;-73
2023/07/13 00:39:56;;;;;;;4.75;2.55;;;21.40;99.90;;;;;;5000950;28;20304;-73
2023/07/13 00:42:21;;;;;;;6.13;4.00;;;21.40;99.90;;;;;;4998651;28;20300;-73
2023/07/13 00:45:26;;;;;;;6.95;2.70;;;21.40;99.90;;;;;;5001772;28;20702;-73
2023/07/13 00:47:51;;;;;;;3.65;2.25;;;21.40;99.90;;;;;;4998918;28;20303;-73
2023/07/13 00:50:19;;;;;;;6.97;3.70;;;21.40;99.90;;;;;;4998347;28;20268;-73
2023/07/13 00:52:48;;;;;;;5.57;2.72;;;21.30;99.90;;;;;;5001459;28;20583;-73
2023/07/13 00:55:15;;;;;;;4.32;3.17;;;21.30;99.90;;;;;;5002332;28;20574;-73
2023/07/13 00:57:41;;;;;;;4.70;2.78;;;21.20;99.90;;;;;;4998546;28;20696;-73
2023/07/13 01:00:08;;;;;;;5.65;2.80;;;21.20;99.90;;;;;;5001955;28;20763;-73
2023/07/13 01:02:37;;;;;;;5.03;3.22;;;21.10;99.90;;;;;;5012565;28;20220;-73
2023/07/13 01:05:14;;;;;;;5.70;3.35;;;21.00;99.90;;;;;;5013761;28;20801;-73
2023/07/13 01:07:42;;;;;;;4.75;2.97;;;21.00;99.90;;;;;;4996907;28;20213;-73
2023/07/13 01:10:08;;;;;;;4.90;2.97;;;21.10;99.90;;;;;;5004074;28;20293;-73
2023/07/13 01:12:34;;;;;;;5.97;2.83;;;21.20;99.90;;;;;;5005563;28;20217;-73
2023/07/13 01:15:01;;;;;;;6.43;3.00;;;21.20;99.90;;;;;;5007318;28;20277;-73
2023/07/13 01:17:32;;;;;;;4.88;2.65;;;21.20;99.90;;;;;;5013469;28;20223;-74
2023/07/13 01:19:59;;;;;;;6.07;2.63;;;21.10;99.90;;;;;;5000398;28;20188;-73
2023/07/13 01:22:26;;;;;;;4.10;2.90;;;21.10;99.90;;;;;;4998936;28;20218;-73
2023/07/13 01:24:53;;;;;;;5.93;2.47;;;21.20;99.90;;;;;;5014693;28;20347;-73
2023/07/13 01:27:24;;;;;;;11.48;8.25;;;21.20;99.90;;;;;;4998387;28;20210;-73
2023/07/13 01:29:52;;;;;;;6.97;5.45;;;21.20;99.90;;;;;;4996593;28;20236;-73
2023/07/13 01:32:23;;;;;;;9.20;6.03;;;21.30;99.90;;;;;;5016484;28;20668;-73
2023/07/13 01:34:53;;;;;;;7.93;4.80;;;21.30;99.90;;;;;;4999614;28;20206;-73
2023/07/13 01:37:20;;;;;;;8.23;4.38;;;21.30;99.90;;;;;;4999515;28;20205;-73
2023/07/13 01:39:46;;;;;;;6.10;3.22;;;21.30;99.90;;;;;;4998123;28;20214;-73
2023/07/13 01:42:12;;;;;;;8.27;6.20;;;21.20;99.90;;;;;;5012050;28;20726;-73
2023/07/13 01:44:38;;;;;;;5.25;4.05;;;21.20;99.90;;;;;;4998262;28;20213;-73
2023/07/13 01:47:04;;;;;;;6.55;4.82;;;21.10;99.90;;;;;;5000966;28;20672;-73
2023/07/13 01:49:29;;;;;;;8.70;6.40;;;21.10;99.90;;;;;;4991959;28;20220;-73
2023/07/13 01:51:55;;;;;;;5.95;3.28;;;21.10;99.90;;;;;;5002577;28;20316;-73
2023/07/13 01:54:20;;;;;;;6.20;3.33;;;21.00;99.90;;;;;;4997690;28;20218;-73
2023/07/13 01:56:46;;;;;;;5.45;3.22;;;21.00;99.90;;;;;;5006794;28;20216;-73
2023/07/13 01:59:11;;;;;;;7.97;4.55;;;21.00;99.90;;;;;;5000716;28;20204;-73
2023/07/13 02:01:37;;;;;;;4.97;3.80;;;21.00;99.90;;;;;;4999674;28;20283;-73
2023/07/13 02:04:03;;;;;;;4.78;2.63;;;20.90;99.90;;;;;;4997759;28;20215;-74
2023/07/13 02:06:29;;;;;;;3.47;2.47;;;20.70;99.90;;;;;;4998827;28;20233;-74
2023/07/13 02:08:55;;;;;;;4.55;2.60;;;20.80;99.90;;;;;;5000046;28;20292;-73
2023/07/13 02:11:21;;;;;;;3.80;2.50;;;20.80;99.90;;;;;;4999608;28;20204;-74
2023/07/13 02:13:46;;;;;;;3.47;2.15;;;20.80;99.90;;;;;;5020297;28;20658;-74
2023/07/13 02:16:12;;;;;;;6.25;3.85;;;20.80;99.90;;;;;;4999409;28;20204;-73
2023/07/13 02:18:37;;;;;;;9.48;5.35;;;20.80;99.90;;;;;;4996593;28;20305;-72
2023/07/13 02:21:03;;;;;;;4.93;3.35;;;20.80;99.90;;;;;;5014783;28;20600;-74
2023/07/13 02:23:29;;;;;;;6.88;3.65;;;20.90;99.90;;;;;;4997288;28;20223;-73
2023/07/13 02:25:59;;;;;;;4.13;3.72;;;20.80;99.90;;;;;;5000144;28;20268;-73
2023/07/13 02:28:24;;;;;;;5.85;3.10;;;20.80;99.90;;;;;;4997644;28;20209;-73
2023/07/13 02:30:50;;;;;;;4.65;2.80;;;20.80;99.90;;;;;;4997775;28;20221;-73
2023/07/13 02:33:16;;;;;;;5.43;2.83;;;20.80;99.90;;;;;;4998250;28;20624;-73
2023/07/13 02:35:42;;;;;;;3.42;2.25;;;20.70;99.90;;;;;;5020746;28;20735;-73
2023/07/13 02:38:08;;;;;;;5.13;2.47;;;20.70;99.90;;;;;;4996239;28;20687;-73
2023/07/13 02:40:35;;;;;;;4.03;2.30;;;20.70;99.90;;;;;;4995568;28;20688;-73
2023/07/13 02:43:01;;;;;;;3.75;2.45;;;20.60;99.90;;;;;;4998498;28;20215;-73
2023/07/13 02:45:27;;;;;;;5.15;2.85;;;20.50;99.90;;;;;;5000657;28;20209;-73
2023/07/13 02:47:53;;;;;;;3.78;2.33;;;20.50;99.90;;;;;;4993592;28;20771;-72
2023/07/13 02:50:19;;;;;;;3.50;2.55;;;20.50;99.90;;;;;;4999682;28;20189;-74
2023/07/13 02:52:45;;;;;;;3.42;2.20;;;20.50;99.90;;;;;;5009853;28;20540;-74
2023/07/13 02:55:10;;;;;;;3.50;2.25;;;20.50;99.90;;;;;;4993531;28;20398;-73
2023/07/13 02:57:36;;;;;;;6.10;2.65;;;20.50;99.90;;;;;;4991212;28;20221;-73
2023/07/13 03:00:07;;;;;;;4.55;2.20;;;20.40;99.90;;;;;;4993848;28;20215;-73
2023/07/13 03:02:33;;;;;;;3.88;2.63;;;20.40;99.90;;;;;;4992406;28;20566;-73
2023/07/13 03:05:00;;;;;;;2.67;2.17;;;20.40;99.90;;;;;;4995195;28;20192;-73
2023/07/13 03:07:25;;;;;;;4.10;2.30;;;20.40;99.90;;;;;;4993215;28;20202;-73
2023/07/13 03:09:56;;;;;;;3.75;2.63;;;20.50;99.90;;;;;;4996135;28;20263;-73
2023/07/13 03:12:22;;;;;;;3.80;2.35;;;20.60;99.90;;;;;;4998175;28;20218;-73
2023/07/13 03:14:47;;;;;;;5.13;2.17;;;20.50;99.90;;;;;;4995882;28;20260;-73
2023/07/13 03:17:13;;;;;;;4.95;2.20;;;20.60;99.90;;;;;;4995976;28;20815;-74
2023/07/13 03:19:38;;;;;;;3.92;2.00;;;20.60;99.90;;;;;;4998069;28;20196;-73
2023/07/13 03:22:04;;;;;;;3.78;2.40;;;20.50;99.90;;;;;;4993905;28;20240;-73
2023/07/13 03:24:32;;;;;;;4.80;2.30;;;20.60;99.90;;;;;;4988930;28;20201;-73
2023/07/13 03:26:57;;;;;;;4.70;2.53;;;20.60;99.90;;;;;;4991776;28;20210;-73
2023/07/13 03:29:23;;;;;;;7.57;2.60;;;20.70;99.90;;;;;;5000672;28;20177;-73
2023/07/13 03:31:49;;;;;;;3.67;2.83;;;20.80;99.90;;;;;;4994790;28;20284;-73
2023/07/13 03:34:14;;;;;;;4.00;2.38;;;20.80;99.90;;;;;;4994957;28;20706;-73
2023/07/13 03:36:40;;;;;;;4.55;2.22;;;20.80;99.90;;;;;;4994918;28;20360;-73
2023/07/13 03:39:08;;;;;;;5.57;2.10;;;21.00;99.90;;;;;;4997208;28;20291;-74
2023/07/13 03:41:33;;;;;;;4.10;2.00;;;21.50;99.90;;;;;;4995820;28;20225;-73
2023/07/13 03:43:59;;;;;;;2.95;2.13;;;21.60;99.90;;;;;;4999231;28;20189;-74
2023/07/13 03:46:25;;;;;;;2.97;2.25;;;21.80;99.90;;;;;;4997169;28;20212;-74
2023/07/13 03:48:50;;;;;;;3.70;2.40;;;22.20;99.90;;;;;;4999737;28;20605;-74
2023/07/13 03:51:17;;;;;;;3.38;2.38;;;22.30;99.90;;;;;;4998827;28;20300;-74
2023/07/13 03:53:44;;;;;;;2.95;2.00;;;22.00;99.90;;;;;;4999856;28;20352;-74
2023/07/13 03:56:10;;;;;;;2.58;2.10;;;21.70;99.90;;;;;;5000272;28;20208;-73
2023/07/13 03:58:39;;;;;;;2.42;2.00;;;21.70;99.90;;;;;;4998518;28;20209;-74
2023/07/13 04:01:07;;;;;;;4.13;2.15;;;21.40;99.90;;;;;;4991716;28;20582;-74
2023/07/13 04:03:34;;;;;;;4.07;2.60;;;21.30;99.90;;;;;;5000067;28;20209;-74
2023/07/13 04:06:00;;;;;;;3.53;2.17;;;22.30;99.90;;;;;;4995539;28;20210;-73
2023/07/13 04:08:32;;;;;;;2.78;2.30;;;22.80;99.90;;;;;;4992805;28;20756;-73
2023/07/13 04:10:59;;;;;;;6.07;2.40;;;23.60;99.90;;;;;;4995181;28;20204;-73
2023/07/13 04:13:25;;;;;;;3.45;2.20;;;24.60;99.90;;;;;;4997939;28;20282;-74
2023/07/13 04:15:52;;;;;;;5.93;2.40;;;25.60;99.90;;;;;;4993498;28;20221;-73
2023/07/13 04:18:19;;;;;;;4.55;1.85;;;26.30;99.90;;;;;;5009741;28;20307;-73
2023/07/13 04:20:46;;;;;;;5.43;2.13;;;26.90;99.90;;;;;;4995575;28;20249;-74
2023/07/13 04:23:11;;;;;;;2.33;1.85;;;27.40;99.90;;;;;;4997166;28;20193;-74
2023/07/13 04:25:37;;;;;;;2.55;1.80;;;27.90;99.90;;;;;;4995457;28;20240;-74
2023/07/13 04:28:04;;;;;;;2.40;1.85;;;28.20;99.90;;;;;;5003863;28;20801;-74
2023/07/13 04:30:30;;;;;;;4.88;2.05;;;29.00;99.90;;;;;;4996149;28;20214;-75
2023/07/13 04:32:55;;;;;;;4.03;1.98;;;29.10;99.90;;;;;;5008726;28;20241;-77
2023/07/13 04:35:21;;;;;;;2.67;2.13;;;29.30;99.90;;;;;;5007904;28;20652;-79
2023/07/13 04:37:50;;;;;;;2.42;1.52;;;29.60;99.90;;;;;;5005498;28;20209;-74
2023/07/13 04:40:19;;;;;;;6.65;2.30;;;29.90;99.90;;;;;;4991646;28;20229;-74
2023/07/13 04:42:46;;;;;;;4.15;1.73;;;30.10;99.90;;;;;;4991532;28;20241;-75
2023/07/13 04:45:13;;;;;;;2.78;1.90;;;30.30;99.90;;;;;;4999052;28;20221;-74
2023/07/13 04:47:40;;;;;;;2.42;1.77;;;30.70;99.90;;;;;;4992414;28;20213;-73
2023/07/13 04:50:07;;;;;;;3.03;1.60;;;30.70;99.90;;;;;;4993653;28;20217;-73
2023/07/13 04:52:34;;;;;;;2.00;1.45;;;31.10;99.90;;;;;;4993601;28;20197;-74
2023/07/13 04:55:00;;;;;;;4.50;1.75;;;31.20;99.90;;;;;;4997305;28;20299;-75
2023/07/13 04:57:27;;;;;;;3.10;1.95;;;31.20;99.90;;;;;;4994675;28;20210;-74
2023/07/13 04:59:53;;;;;;;2.92;2.05;;;31.40;99.90;;;;;;4997720;28;20240;-74
2023/07/13 05:02:20;;;;;;;4.60;2.00;;;32.20;99.90;;;;;;4994851;28;20912;-75
2023/07/13 05:04:48;;;;;;;2.33;1.70;;;33.00;99.40;;;;;;4996823;28;20268;-73
2023/07/13 05:07:14;;;;;;;2.55;2.00;;;33.30;98.10;;;;;;5012431;28;20228;-74
2023/07/13 05:09:40;;;;;;;3.88;2.05;;;33.60;96.80;;;;;;4998721;28;20205;-74
2023/07/13 05:12:08;;;;;;;2.78;1.88;;;33.80;96.00;;;;;;5000987;28;20672;-74
2023/07/13 05:14:34;;;;;;;3.72;2.20;;;33.60;95.60;;;;;;4997973;28;20209;-73
2023/07/13 05:17:00;;;;;;;4.47;2.35;;;34.00;94.50;;;;;;5001816;28;20195;-73
2023/07/13 05:19:26;;;;;;;5.85;3.30;;;33.90;93.80;;;;;;5001216;28;20274;-75
2023/07/13 05:21:52;;;;;;;4.05;3.20;;;33.50;94.20;;;;;;4997932;28;20739;-73
2023/07/13 05:24:18;;;;;;;3.42;2.55;;;33.90;93.50;;;;;;5000916;28;20235;-72
2023/07/13 05:26:44;;;;;;;5.05;2.60;;;33.30;93.50;;;;;;4998582;28;20217;-72
2023/07/13 05:29:09;;;;;;;9.45;8.07;;;33.80;93.30;;;;;;4999190;28;20295;-72
2023/07/13 05:31:35;;;;;;;4.57;3.95;;;33.60;93.00;;;;;;4999471;28;20199;-72
2023/07/13 05:34:01;;;;;;;4.53;2.70;;;33.50;92.60;;;;;;4998906;28;20209;-72
2023/07/13 05:36:26;;;;;;;2.83;2.42;;;33.50;92.60;;;;;;5001301;28;20208;-72
2023/07/13 05:38:52;;;;;;;4.55;2.85;;;33.70;92.40;;;;;;4998117;28;20225;-72
2023/07/13 05:41:17;;;;;;;5.68;2.45;;;33.50;92.00;;;;;;5002387;28;20223;-72
2023/07/13 05:43:43;;;;;;;4.90;2.05;;;33.50;92.30;;;;;;4998739;28;20714;-71
2023/07/13 05:46:09;;;;;;;4.45;2.42;;;34.20;91.60;;;;;;4999523;28;20225;-71
2023/07/13 05:48:34;;;;;;;4.35;2.20;;;34.50;90.90;;;;;;4997037;28;20205;-71
2023/07/13 05:51:01;;;;;;;3.90;1.92;;;34.60;90.40;;;;;;5000624;28;20657;-73
2023/07/13 05:53:26;;;;;;;3.22;2.20;;;34.60;89.90;;;;;;5001728;28;20213;-72
2023/07/13 05:55:54;;;;;;;4.53;2.13;;;34.30;90.00;;;;;;5000624;28;20680;-73
2023/07/13 05:58:20;;;;;;;4.25;1.88;;;34.40;89.70;;;;;;5000238;28;20652;-72
2023/07/13 06:00:47;;;;;;;2.85;1.90;;;34.00;89.60;;;;;;4998438;28;20216;-73
2023/07/13 06:03:12;;;;;;;3.38;2.00;;;34.10;89.80;;;;;;4998992;28;20703;-73
2023/07/13 06:05:38;;;;;;;4.03;2.40;;;34.10;89.70;;;;;;4997532;28;20213;-73
2023/07/13 06:08:05;;;;;;;4.43;2.22;;;34.30;89.80;;;;;;5001062;28;20185;-73
2023/07/13 06:10:37;;;;;;;3.95;1.92;;;34.30;89.00;;;;;;5000579;28;20324;-70
2023/07/13 06:13:03;;;;;;;3.88;1.58;;;34.10;89.10;;;;;;4998323;28;20312;-72
2023/07/13 06:15:28;;;;;;;4.55;2.20;;;34.50;89.10;;;;;;4998794;28;20798;-73
2023/07/13 06:17:54;;;;;;;5.95;2.40;;;35.10;87.50;;;;;;4995739;28;20320;-73
2023/07/13 06:20:20;;;;;;;2.72;1.90;;;35.00;86.80;;;;;;4999221;28;20215;-73
2023/07/13 06:22:45;;;;;;;2.60;1.67;;;35.80;84.80;;;;;;4997682;28;20193;-73
2023/07/13 06:25:11;;;;;;;3.72;1.77;;;35.80;85.40;;;;;;5000352;28;20255;-73
2023/07/13 06:27:37;;;;;;;3.45;1.73;;;36.20;83.70;;;;;;4996971;28;20224;-73
2023/07/13 06:30:03;;;;;;;3.53;1.85;;;36.10;82.60;;;;;;4998362;28;20266;-70
2023/07/13 06:32:28;;;;;;;3.25;1.52;;;36.50;81.70;;;;;;4997255;28;20668;-71
2023/07/13 06:34:54;;;;;;;3.13;1.65;;;36.30;81.20;;;;;;5000222;28;20643;-71
2023/07/13 06:37:19;;;;;;;3.78;1.95;;;36.40;80.20;;;;;;5001655;28;20538;-72
2023/07/13 06:39:45;;;;;;;3.65;1.63;;;36.70;80.20;;;;;;4997204;28;20220;-71
2023/07/13 06:42:11;;;;;;;3.17;2.05;;;36.90;78.30;;;;;;4998284;28;20220;-71
2023/07/13 06:44:37;;;;;;;5.22;2.63;;;37.00;79.10;;;;;;4998924;28;20212;-71
2023/07/13 06:47:03;;;;;;;3.83;2.85;;;37.60;77.70;;;;;;4998083;28;20177;-72
2023/07/13 06:49:28;;;;;;;3.33;1.70;;;37.90;76.20;;;;;;4996741;28;20274;-72
2023/07/13 06:51:54;;;;;;;4.18;1.70;;;38.20;74.60;;;;;;4996933;28;20213;-71
2023/07/13 06:54:19;;;;;;;2.72;1.40;;;38.10;73.80;;;;;;4999940;28;20220;-72
2023/07/13 06:56:45;;;;;;;2.58;1.55;;;37.80;73.90;;;;;;4995845;28;20213;-70
2023/07/13 06:59:11;;;;;;;2.45;1.70;;;37.50;73.10;;;;;;5000560;28;20289;-71
2023/07/13 07:01:36;;;;;;;3.03;1.67;;;37.30;73.60;;;;;;4995616;28;20208;-71
2023/07/13 07:04:04;;;;;;;3.78;3.38;;;37.60;74.00;;;;;;5003399;28;20209;-72
2023/07/13 07:06:29;;;;;;;5.70;3.05;;;37.90;73.70;;;;;;5001615;28;20208;-71
2023/07/13 07:08:55;;;;;;;2.17;1.73;;;37.80;73.90;;;;;;5002281;28;20217;-71
2023/07/13 07:11:24;;;;;;;5.15;2.15;;;37.80;72.60;;;;;;5000877;28;20200;-71
2023/07/13 07:13:51;;;;;;;5.15;2.08;;;37.80;72.10;;;;;;5007683;28;20185;-74
2023/07/13 07:16:17;;;;;;;3.83;1.70;;;37.50;71.90;;;;;;5005683;28;20209;-70
2023/07/13 07:18:44;;;;;;;4.13;2.13;;;38.10;71.90;;;;;;5008136;28;20639;-71
2023/07/13 07:21:09;;;;;;;2.42;1.60;;;38.60;71.20;;;;;;4996422;28;20252;-71
2023/07/13 07:23:35;;;;;;;1.98;1.77;;;39.30;70.00;;;;;;5000977;28;20887;-70
2023/07/13 07:26:01;;;;;;;6.78;1.90;;;38.80;69.60;;;;;;5016185;28;20177;-70
2023/07/13 07:28:28;;;;;;;3.60;1.92;;;37.60;70.60;;;;;;4997980;28;20588;-71
2023/07/13 07:30:56;;;;;;;8.32;2.00;;;36.00;73.10;;;;;;4998510;28;20252;-73
2023/07/13 07:33:21;;;;;;;3.90;1.48;;;34.60;76.00;;;;;;5018436;28;20243;-71
2023/07/13 07:35:47;;;;;;;4.13;1.48;;;33.40;78.00;;;;;;4997066;28;20242;-73
2023/07/13 07:38:13;;;;;;;2.67;1.55;;;33.10;78.50;;;;;;4998105;28;20255;-72
2023/07/13 07:40:40;;;;;;;4.78;1.55;;;32.10;80.00;;;;;;4997251;28;20931;-72
2023/07/13 07:43:06;;;;;;;3.38;2.17;;;31.40;82.30;;;;;;5002081;28;20275;-72
2023/07/13 07:45:32;;;;;;;4.97;3.17;;;30.80;82.90;;;;;;4998565;28;20746;-71
2023/07/13 07:47:58;;;;;;;3.00;1.77;;;29.90;84.70;;;;;;5001782;28;20308;-72
2023/07/13 07:50:25;;;;;;;2.95;2.05;;;29.40;86.20;;;;;;4999723;28;20188;-72
2023/07/13 07:52:51;;;;;;;3.13;1.63;;;29.00;87.20;;;;;;5016961;28;20216;-72
2023/07/13 07:55:17;;;;;;;3.55;1.80;;;29.10;88.40;;;;;;5001091;28;20699;-72
2023/07/13 07:57:43;;;;;;;3.20;1.40;;;29.30;89.30;;;;;;5000536;28;20576;-72
2023/07/13 08:00:09;;;;;;;4.80;2.42;;;29.30;89.80;;;;;;5002378;28;20257;-73
2023/07/13 08:02:35;;;;;;;8.20;5.20;;;29.40;89.80;;;;;;4999890;28;20224;-72
2023/07/13 08:05:00;;;;;;;4.63;3.58;;;29.50;88.80;;;;;;4996740;28;20178;-72
2023/07/13 08:07:26;;;;;;;7.55;4.38;;;29.00;89.40;;;;;;5002188;28;20255;-72
2023/07/13 08:09:53;;;;;;;5.70;1.50;;;29.40;88.60;;;;;;5003455;28;20237;-72
2023/07/13 08:12:19;;;;;;;4.32;2.22;;;29.60;88.20;;;;;;4995274;28;20687;-73
2023/07/13 08:14:44;;;;;;;3.10;1.83;;;29.50;88.40;;;;;;5009629;28;20355;-72
2023/07/13 08:17:10;;;;;;;8.63;5.63;;;29.30;89.40;;;;;;4998389;28;20188;-72
2023/07/13 08:19:35;;;;;;;4.68;3.92;;;29.60;90.00;;;;;;5000638;28;20299;-71
2023/07/13 08:22:01;;;;;;;6.05;2.90;;;29.70;89.90;;;;;;5000390;28;21033;-71
2023/07/13 08:24:27;;;;;;;7.63;4.45;;;30.10;89.80;;;;;;5003821;28;20205;-73
2023/07/13 08:26:52;;;;;;;3.15;1.70;;;30.30;88.90;;;;;;5000994;28;20213;-72
2023/07/13 08:29:18;;;;;;;1.70;1.55;;;30.60;87.50;;;;;;5001457;28;20189;-71
2023/07/13 08:31:44;;;;;;;6.38;3.42;;;30.80;87.20;;;;;;5003543;28;20578;-72
2023/07/13 08:34:10;;;;;;;3.38;1.70;;;30.90;86.20;;;;;;5005053;28;20715;-72
2023/07/13 08:36:37;;;;;;;7.20;5.15;;;31.00;85.00;;;;;;4998675;28;20224;-72
2023/07/13 08:39:02;;;;;;;11.07;8.43;;;30.50;86.10;;;;;;5002823;28;20624;-72
2023/07/13 08:41:28;;;;;;;5.97;1.90;;;30.30;87.40;;;;;;4998292;28;20225;-72
2023/07/13 08:43:59;;;;;;;9.05;4.68;;;29.90;87.60;;;;;;4996217;28;20185;-73
2023/07/13 08:46:36;;;;;;;10.13;7.88;;;29.40;88.20;;;;;;5002659;28;20212;-72
2023/07/13 08:49:16;;;;;;;4.95;1.92;;;28.80;89.80;;;;;;5000440;28;20212;-72
2023/07/13 08:51:42;;;;;;;2.72;1.58;;;28.60;90.50;;;;;;4999861;28;20213;-72
2023/07/13 08:54:34;;;;;;;5.85;2.28;;;29.70;89.90;;;;;;4994325;28;20692;-72
2023/07/13 08:57:05;;;;;;;2.85;1.83;;;31.40;86.10;;;;;;5005372;28;20237;-72
2023/07/13 08:59:34;;;;;;;5.03;2.08;;;32.60;82.60;;;;;;5000494;28;20221;-72
2023/07/13 09:02:02;;;;;;;3.78;2.08;;;33.30;81.10;;;;;;4997956;28;20248;-72
2023/07/13 09:04:34;;;;;;;3.00;1.85;;;33.80;80.20;;;;;;4996917;28;20808;-72
2023/07/13 09:07:22;;;;;;;3.22;2.35;;;34.10;78.60;;;;;;4997696;28;20608;-73
2023/07/13 09:10:02;;;;;;;4.88;2.17;;;33.70;78.50;;;;;;5005208;28;20228;-72
2023/07/13 09:12:38;;;;;;;5.85;3.33;;;33.00;78.70;;;;;;4999940;28;20217;-71
2023/07/13 09:15:14;;;;;;;4.97;2.15;;;33.50;78.20;;;;;;4998148;28;20662;-73
2023/07/13 09:17:50;;;;;;;3.13;1.80;;;33.60;76.60;;;;;;4998300;28;20232;-73
2023/07/13 09:20:31;;;;;;;6.40;1.70;;;33.80;76.70;;;;;;4997206;28;20181;-72
2023/07/13 09:23:01;;;;;;;5.65;2.20;;;33.50;76.30;;;;;;4998717;28;20178;-73
2023/07/13 09:25:31;;;;;;;2.45;1.52;;;33.40;77.10;;;;;;5000617;28;20205;-71
2023/07/13 09:28:21;;;;;;;3.65;2.55;;;33.40;77.10;;;;;;5001082;28;20220;-71
2023/07/13 09:30:51;;;;;;;6.05;4.07;;;33.40;77.00;;;;;;4990481;28;20965;-72
2023/07/13 09:33:17;;;;;;;4.78;1.73;;;33.50;75.00;;;;;;5000602;28;20213;-72
2023/07/13 09:35:43;;;;;;;3.63;2.08;;;33.20;74.60;;;;;;4998988;28;20223;-71
2023/07/13 09:38:13;;;;;;;6.00;2.42;;;32.10;75.20;;;;;;5002570;28;20205;-73
2023/07/13 09:40:59;;;;;;;4.07;2.78;;;32.00;74.10;;;;;;4999670;28;20188;-73
2023/07/13 09:43:25;;;;;;;2.63;1.88;;;31.70;74.80;;;;;;4999064;28;20223;-73
2023/07/13 09:45:51;;;;;;;6.00;2.97;;;31.80;76.30;;;;;;5004865;28;20209;-73
2023/07/13 09:48:18;;;;;;;10.43;6.20;;;31.00;78.40;;;;;;5003380;28;20740;-73
2023/07/13 09:50:44;;;;;;;13.27;9.65;;;31.10;79.40;;;;;;4997561;28;20221;-73
2023/07/13 09:53:18;;;;;;;7.45;3.03;;;31.30;79.50;;;;;;5000454;28;20188;-73
2023/07/13 09:55:47;;;;;;;4.45;3.50;;;31.80;78.60;;;;;;4997645;28;20232;-73
2023/07/13 09:58:19;;;;;;;7.57;3.08;;;31.70;79.10;;;;;;5000178;28;20223;-72
2023/07/13 10:00:59;;;;;;;3.92;2.47;;;31.50;78.40;;;;;;4999842;28;20316;-73
2023/07/13 10:03:33;;;;;;;6.07;3.65;;;31.40;78.60;;;;;;5004420;28;20216;-73
2023/07/13 10:06:12;;;;;;;5.60;2.60;;;31.50;79.40;;;;;;5001509;28;20810;-73
2023/07/13 10:08:38;;;;;;;5.72;4.70;;;31.20;79.20;;;;;;5001406;28;20208;-73
2023/07/13 10:11:33;;;;;;;8.45;5.07;;;31.10;79.50;;;;;;4998773;28;20562;-73
2023/07/13 10:14:02;;;;;;;7.75;2.65;;;31.00;80.30;;;;;;4998414;28;20202;-73
2023/07/13 10:16:33;;;;;;;5.43;2.22;;;30.70;80.20;;;;;;5013279;28;20609;-73
2023/07/13 10:19:03;;;;;;;4.88;2.50;;;30.70;79.90;;;;;;4998066;28;20220;-73
2023/07/13 10:21:36;;;;;;;3.80;2.13;;;30.40;79.50;;;;;;4999314;28;20721;-74
2023/07/13 10:24:11;;;;;;;3.83;1.92;;;30.10;79.50;;;;;;5014645;28;20225;-74
2023/07/13 10:26:45;;;;;;;3.83;1.92;;;30.30;79.30;;;;;;5016375;28;20296;-74
2023/07/13 10:29:14;;;;;;;5.68;2.75;;;30.00;80.00;;;;;;5011910;28;20177;-74
2023/07/13 10:31:41;;;;;;;8.82;6.55;;;30.40;80.60;;;;;;4997950;28;20220;-74
2023/07/13 10:34:10;;;;;;;6.43;3.63;;;30.80;80.50;;;;;;5000637;28;20813;-74
2023/07/13 10:36:40;;;;;;;5.88;4.38;;;31.10;80.30;;;;;;5005546;28;20249;-73
2023/07/13 10:39:06;;;;;;;6.55;3.97;;;31.00;80.50;;;;;;4996537;28;20229;-74
2023/07/13 10:41:41;;;;;;;6.85;2.80;;;31.30;80.60;;;;;;4996066;28;20219;-74
2023/07/13 10:44:19;;;;;;;4.97;3.13;;;31.20;79.90;;;;;;4997209;28;20189;-74
2023/07/13 10:46:45;;;;;;;4.32;2.85;;;31.20;78.60;;;;;;5002163;28;20181;-73
2023/07/13 10:49:12;;;;;;;5.60;4.60;;;31.20;77.80;;;;;;4998023;28;20205;-73
2023/07/13 10:51:39;;;;;;;9.85;5.90;;;30.80;78.90;;;;;;4999376;28;20212;-73
2023/07/13 10:54:19;;;;;;;4.03;3.35;;;30.90;79.80;;;;;;4998207;28;20251;-74
2023/07/13 10:56:46;;;;;;;5.28;4.05;;;30.90;79.20;;;;;;4997184;28;20212;-73
2023/07/13 10:59:16;;;;;;;4.68;3.10;;;30.80;79.50;;;;;;5002000;28;20205;-73
2023/07/13 11:01:57;;;;;;;3.72;3.17;;;30.60;79.60;;;;;;5006523;28;20204;-73
2023/07/13 11:04:25;;;;;;;3.58;2.78;;;30.40;79.40;;;;;;4996494;28;20555;-74
2023/07/13 11:06:56;;;;;;;5.55;2.63;;;30.60;79.80;;;;;;4996054;28;20213;-73
2023/07/13 11:09:34;;;;;;;5.38;3.05;;;30.50;79.50;;;;;;4998315;28;20568;-73
2023/07/13 11:12:17;;;;;;;5.25;2.97;;;30.40;78.60;;;;;;4998873;28;20312;-73
2023/07/13 11:14:55;;;;;;;6.03;2.78;;;30.10;77.60;;;;;;4999653;28;20216;-73
2023/07/13 11:17:31;;;;;;;3.28;2.67;;;29.80;79.60;;;;;;5000880;28;20184;-73
2023/07/13 11:20:12;;;;;;;6.50;3.00;;;29.60;80.20;;;;;;5000862;28;20251;-74
2023/07/13 11:22:48;;;;;;;4.45;2.70;;;29.30;80.70;;;;;;4993644;28;20221;-74
2023/07/13 11:25:19;;;;;;;6.45;2.50;;;28.70;81.20;;;;;;4995886;28;20296;-73
2023/07/13 11:27:50;;;;;;;4.93;2.75;;;28.90;81.50;;;;;;4998721;28;20212;-74
2023/07/13 11:30:27;;;;;;;8.55;4.82;;;28.80;80.20;;;;;;4996470;28;20213;-73
2023/07/13 11:33:20;;;;;;;5.43;3.13;;;28.90;79.80;;;;;;4994489;28;20801;-73
2023/07/13 11:36:02;;;;;;;5.90;2.95;;;29.00;79.80;;;;;;4999710;28;20239;-73
2023/07/13 11:38:40;;;;;;;4.30;2.33;;;29.00;79.80;;;;;;4998488;28;20259;-73
2023/07/13 11:41:07;;;;;;;4.38;2.38;;;29.00;80.00;;;;;;5001809;28;20204;-73
2023/07/13 11:43:33;;;;;;;5.28;2.33;;;29.10;77.70;;;;;;4996176;28;20254;-73
2023/07/13 11:46:22;;;;;;;4.32;2.13;;;29.30;78.70;;;;;;4997712;28;20244;-74
2023/07/13 11:48:50;;;;;;;4.38;2.38;;;29.50;79.10;;;;;;5000025;28;20216;-74
2023/07/13 11:51:29;;;;;;;5.10;2.42;;;29.30;79.00;;;;;;5016858;28;20227;-73
2023/07/13 11:53:56;;;;;;;5.00;2.50;;;28.80;79.10;;;;;;5003163;28;20751;-73
2023/07/13 11:56:23;;;;;;;4.18;2.20;;;28.90;80.20;;;;;;4999696;28;20655;-74
2023/07/13 11:58:55;;;;;;;4.00;3.50;;;29.00;80.20;;;;;;5002405;28;20213;-73
2023/07/13 12:01:24;;;;;;;5.85;2.83;;;28.90;80.60;;;;;;4999641;28;20737;-73
2023/07/13 12:03:51;;;;;;;6.10;4.13;;;29.10;80.70;;;;;;5001114;28;20259;-73
2023/07/13 12:06:41;;;;;;;4.63;2.97;;;28.80;81.00;;;;;;5000207;28;20241;-73
2023/07/13 12:09:18;;;;;;;2.90;2.38;;;28.60;81.70;;;;;;4999361;28;20272;-73
2023/07/13 12:11:44;;;;;;;5.10;2.35;;;28.80;81.70;;;;;;4993881;28;20722;-73
2023/07/13 12:14:15;;;;;;;4.07;2.25;;;29.00;82.00;;;;;;5001189;28;20186;-74
2023/07/13 12:16:41;;;;;;;6.32;2.78;;;29.10;81.40;;;;;;4999941;28;20751;-74
2023/07/13 12:19:24;;;;;;;6.07;2.85;;;29.00;82.00;;;;;;4998359;28;20217;-73
2023/07/13 12:21:53;;;;;;;5.40;2.65;;;28.90;81.90;;;;;;5017989;28;21041;-74
2023/07/13 12:24:20;;;;;;;5.57;3.05;;;28.80;81.50;;;;;;5002310;28;20217;-73
2023/07/13 12:26:52;;;;;;;8.65;3.72;;;28.60;80.30;;;;;;4998817;28;20230;-73
2023/07/13 12:29:18;;;;;;;4.82;1.85;;;28.40;80.30;;;;;;5015023;28;20240;-73
2023/07/13 12:31:46;;;;;;;5.43;2.40;;;28.40;80.90;;;;;;4998923;28;20592;-73
2023/07/13 12:34:15;;;;;;;6.68;2.97;;;28.40;82.00;;;;;;5013794;28;20209;-73
2023/07/13 12:36:49;;;;;;;4.72;2.20;;;28.40;80.60;;;;;;4997206;28;20776;-73
2023/07/13 12:39:16;;;;;;;3.60;1.80;;;28.30;80.40;;;;;;4998841;28;20717;-73
2023/07/13 12:41:45;;;;;;;5.88;2.83;;;28.20;80.40;;;;;;5001804;28;20583;-73
2023/07/13 12:44:31;;;;;;;5.72;3.20;;;28.10;80.40;;;;;;4998932;28;20185;-73
2023/07/13 12:47:10;;;;;;;3.95;1.90;;;28.20;80.40;;;;;;5003328;28;20252;-73
2023/07/13 12:49:41;;;;;;;3.75;1.90;;;28.10;80.50;;;;;;5001859;28;20222;-73
2023/07/13 12:52:15;;;;;;;5.20;1.73;;;27.90;80.70;;;;;;4997670;28;20237;-74